Portada
METAR-TAF:

METAR-TAF

Aeroports :

Caxias do Sul, Rio Grande do Sul, Brasil

latitud: 29-11-44S, longitud: 051-11-23W, altitud: 754 m

Observació

L'informe es va fer fa 9 hores i 9 minuts, a les 14:00 UTC
Vent 4 kt del Est/Sud-Est
Temperatura 8°C
Humitat 93%
Pressió 1016 hPa
Visibilitat: 8000 m
Núvols disperses a una alçada de 2700 ft
Cel cobert a una alçada de 7700 ft
pluja

METAR: SBCX 121400Z 12004KT 8000 -RA SCT027 OVC077 08/07 Q1016

Hora: 20:09 (23:09 UTC)


TAF: manca

Observacions i pronòstics meteorològics de més de 4000 aeroports (METAR i TAF).

Les estacions disponibles són els punts grocs i vermells al mapa.

Posi el ratolí al punt desitjat per veure el nom de l'estació.

Feu clic per veure les observacions i els pronòstics meteorològics.

Per canviar el mapa: feu clic els botons verds amb una creu de color negre per apropar; al botó verd amb un guió per allunyar la imatge; o en les fletxes verdes per a mapes adjacents.


METAR-TAF: